createdAt,value
2017-02-12T00:00:09.251Z,1005.90
2017-02-12T00:00:35.827Z,1005.98
2017-02-12T00:00:57.539Z,1005.97
2017-02-12T00:01:19.254Z,1005.91
2017-02-12T00:02:22.343Z,1005.89
2017-02-12T00:02:44.130Z,1005.83
2017-02-12T00:03:06.979Z,1005.93
2017-02-12T00:03:29.047Z,1005.90
2017-02-12T00:03:50.890Z,1005.90
2017-02-12T00:04:49.295Z,1005.98
2017-02-12T00:05:11.000Z,1006.04
2017-02-12T00:05:37.500Z,1006.04
2017-02-12T00:05:59.208Z,1006.05
2017-02-12T00:06:20.924Z,1006.08
2017-02-12T00:06:47.503Z,1006.17
2017-02-12T00:07:09.212Z,1006.21
2017-02-12T00:07:30.918Z,1006.19
2017-02-12T00:07:57.497Z,1006.20
2017-02-12T00:08:19.202Z,1006.19
2017-02-12T00:08:40.908Z,1006.20
2017-02-12T00:09:02.656Z,1006.19
2017-02-12T00:09:24.382Z,1006.33
2017-02-12T00:09:46.205Z,1006.30
2017-02-12T00:10:12.684Z,1006.41
2017-02-12T00:10:34.393Z,1006.33
2017-02-12T00:10:56.095Z,1006.26
2017-02-12T00:11:17.794Z,1006.39
2017-02-12T00:11:39.530Z,1006.31
2017-02-12T00:12:01.259Z,1006.40
2017-02-12T00:12:27.830Z,1006.43
2017-02-12T00:12:49.554Z,1006.35
2017-02-12T00:13:16.128Z,1006.42
2017-02-12T00:13:37.949Z,1006.41
2017-02-12T00:14:04.565Z,1006.32
2017-02-12T00:14:26.276Z,1006.28
2017-02-12T00:14:47.987Z,1006.30
2017-02-12T00:15:46.303Z,1006.40
2017-02-12T00:16:08.013Z,1006.28
2017-02-12T00:16:34.505Z,1006.33
2017-02-12T00:16:56.211Z,1006.37
2017-02-12T00:17:17.927Z,1006.24
2017-02-12T00:17:44.409Z,1006.24
2017-02-12T00:18:06.112Z,1006.29
2017-02-12T00:18:27.827Z,1006.31
2017-02-12T00:19:20.901Z,1006.24
2017-02-12T00:20:14.065Z,1006.34
2017-02-12T00:20:36.083Z,1006.44
2017-02-12T00:21:02.689Z,1006.47
2017-02-12T00:21:24.387Z,1006.28
2017-02-12T00:21:46.090Z,1006.45
2017-02-12T00:22:39.117Z,1006.40
2017-02-12T00:23:05.591Z,1006.41
2017-02-12T00:23:27.306Z,1006.39
2017-02-12T00:23:53.806Z,1006.42
2017-02-12T00:24:15.631Z,1006.36
2017-02-12T00:24:42.118Z,1006.40
2017-02-12T00:25:03.861Z,1006.44
2017-02-12T00:25:30.350Z,1006.44
2017-02-12T00:25:52.156Z,1006.50
2017-02-12T00:26:13.865Z,1006.49
2017-02-12T00:26:35.581Z,1006.54
2017-02-12T00:26:57.402Z,1006.52
2017-02-12T00:27:19.125Z,1006.51
2017-02-12T00:27:40.844Z,1006.56
2017-02-12T00:28:02.554Z,1006.49
2017-02-12T00:28:24.365Z,1006.43
2017-02-12T00:28:50.870Z,1006.53
2017-02-12T00:29:12.569Z,1006.42
2017-02-12T00:30:05.634Z,1006.52
2017-02-12T00:30:32.132Z,1006.56
2017-02-12T00:30:53.859Z,1006.51
2017-02-12T00:31:20.343Z,1006.53
2017-02-12T00:31:42.146Z,1006.59
2017-02-12T00:32:03.858Z,1006.58
2017-02-12T00:33:07.052Z,1006.55
2017-02-12T00:33:28.994Z,1006.58
2017-02-12T00:33:53.849Z,1006.61
2017-02-12T00:34:15.559Z,1006.54
2017-02-12T00:34:37.272Z,1006.78
2017-02-12T00:35:03.747Z,1006.62
2017-02-12T00:35:25.539Z,1006.60
2017-02-12T00:36:18.660Z,1006.64
2017-02-12T00:36:40.375Z,1006.70
2017-02-12T00:37:06.858Z,1006.64
2017-02-12T00:37:28.668Z,1006.76
2017-02-12T00:37:55.174Z,1006.61
2017-02-12T00:38:16.880Z,1006.77
2017-02-12T00:38:43.371Z,1006.71
2017-02-12T00:39:05.167Z,1006.81
2017-02-12T00:39:26.886Z,1006.76
2017-02-12T00:39:48.607Z,1006.76
2017-02-12T00:40:10.444Z,1006.78
2017-02-12T00:40:32.160Z,1006.79
2017-02-12T00:40:58.653Z,1006.82
2017-02-12T00:41:20.367Z,1006.97
2017-02-12T00:42:18.802Z,1006.91
2017-02-12T00:42:40.521Z,1006.93
2017-02-12T00:43:02.224Z,1006.92
2017-02-12T00:43:28.710Z,1007.00
2017-02-12T00:43:50.535Z,1007.05
2017-02-12T00:44:12.267Z,1006.99
2017-02-12T00:44:33.980Z,1007.01
2017-02-12T00:44:55.788Z,1007.03
2017-02-12T00:45:22.290Z,1006.97
2017-02-12T00:45:44.003Z,1006.99
2017-02-12T00:46:37.037Z,1006.91
2017-02-12T00:47:30.112Z,1007.07
2017-02-12T00:48:32.633Z,1006.99
2017-02-12T00:48:54.428Z,1006.99
2017-02-12T00:49:20.914Z,1007.05
2017-02-12T00:49:42.630Z,1007.10
2017-02-12T00:50:09.119Z,1007.04
2017-02-12T00:50:30.947Z,1007.09
2017-02-12T00:51:34.022Z,1007.03
2017-02-12T00:51:56.333Z,1007.09
2017-02-12T00:52:59.402Z,1007.19
2017-02-12T00:53:21.200Z,1007.10
2017-02-12T00:54:24.282Z,1007.06
2017-02-12T00:54:46.124Z,1007.07
2017-02-12T00:55:39.228Z,1006.99
2017-02-12T00:56:00.949Z,1007.03
2017-02-12T00:56:22.678Z,1007.01
2017-02-12T00:56:44.530Z,1007.09
2017-02-12T00:57:37.763Z,1007.10
2017-02-12T00:57:59.484Z,1007.07
2017-02-12T00:58:52.550Z,1007.04
2017-02-12T00:59:55.164Z,1007.27
2017-02-12T01:00:16.871Z,1007.17
2017-02-12T01:01:09.957Z,1007.17
2017-02-12T01:02:12.467Z,1007.10
2017-02-12T01:02:34.278Z,1007.23
2017-02-12T01:02:56.000Z,1007.18
2017-02-12T01:03:22.477Z,1007.17
2017-02-12T01:03:44.189Z,1007.25
2017-02-12T01:04:10.675Z,1007.34
2017-02-12T01:04:32.515Z,1007.20
2017-02-12T01:04:58.999Z,1007.20
2017-02-12T01:06:02.101Z,1007.21
2017-02-12T01:06:23.833Z,1007.10
2017-02-12T01:07:26.438Z,1007.16
2017-02-12T01:07:52.921Z,1007.28
2017-02-12T01:08:14.642Z,1007.23
2017-02-12T01:09:13.516Z,1007.28
2017-02-12T01:09:35.222Z,1007.30
2017-02-12T01:09:56.939Z,1007.39
2017-02-12T01:10:23.431Z,1007.53
2017-02-12T01:10:45.235Z,1007.36
2017-02-12T01:11:11.719Z,1007.30
2017-02-12T01:11:33.468Z,1007.33
2017-02-12T01:12:26.560Z,1007.32
2017-02-12T01:12:48.266Z,1007.37
2017-02-12T01:13:14.749Z,1007.38
2017-02-12T01:13:36.544Z,1007.32
2017-02-12T01:14:29.506Z,1007.34
2017-02-12T01:15:36.809Z,1007.43
2017-02-12T01:15:58.544Z,1007.39
2017-02-12T01:16:20.269Z,1007.47
2017-02-12T01:16:42.093Z,1007.43
2017-02-12T01:17:03.788Z,1007.44
2017-02-12T01:17:25.504Z,1007.41
2017-02-12T01:18:59.286Z,1007.37
2017-02-12T01:19:52.319Z,1007.30
2017-02-12T01:20:18.805Z,1007.33
2017-02-12T01:20:40.505Z,1007.34
2017-02-12T01:21:33.575Z,1007.43
2017-02-12T01:21:55.308Z,1007.49
2017-02-12T01:22:17.165Z,1007.49
2017-02-12T01:22:39.023Z,1007.50
2017-02-12T01:23:00.748Z,1007.56
2017-02-12T01:23:53.798Z,1007.60
2017-02-12T01:24:20.285Z,1007.66
2017-02-12T01:24:42.012Z,1007.75
2017-02-12T01:25:08.506Z,1007.58
2017-02-12T01:25:30.300Z,1007.66
2017-02-12T01:25:52.042Z,1007.69
2017-02-12T01:26:13.775Z,1007.70
2017-02-12T01:26:35.488Z,1007.73
2017-02-12T01:28:09.619Z,1007.70
2017-02-12T01:29:43.851Z,1007.70
2017-02-12T01:30:51.299Z,1007.71
2017-02-12T01:31:13.140Z,1007.65
2017-02-12T01:31:34.954Z,1007.68
2017-02-12T01:32:28.089Z,1007.83
2017-02-12T01:32:49.804Z,1007.84
2017-02-12T01:33:11.559Z,1007.78
2017-02-12T01:33:33.293Z,1007.65
2017-02-12T01:33:55.114Z,1007.61
2017-02-12T01:34:58.211Z,1007.61
2017-02-12T01:35:20.035Z,1007.62
2017-02-12T01:35:41.802Z,1007.63
2017-02-12T01:36:03.529Z,1007.63
2017-02-12T01:36:25.229Z,1007.62
2017-02-12T01:36:51.719Z,1007.70
2017-02-12T01:37:13.510Z,1007.70
2017-02-12T01:38:06.567Z,1007.81
2017-02-12T01:39:40.432Z,1007.76
2017-02-12T01:40:02.131Z,1007.69
2017-02-12T01:40:23.849Z,1007.62
2017-02-12T01:40:45.632Z,1007.58
2017-02-12T01:41:52.935Z,1007.66
2017-02-12T01:42:14.706Z,1007.61
2017-02-12T01:43:07.667Z,1007.62
2017-02-12T01:43:29.636Z,1007.62
2017-02-12T01:43:53.952Z,1007.60
2017-02-12T01:44:47.012Z,1007.66
2017-02-12T01:45:40.057Z,1007.55
2017-02-12T01:46:06.675Z,1007.85
2017-02-12T01:46:28.323Z,1007.62
2017-02-12T01:46:54.819Z,1007.60
2017-02-12T01:47:22.387Z,1007.58
2017-02-12T01:47:44.301Z,1007.59
2017-02-12T01:48:06.112Z,1007.63
2017-02-12T01:48:27.910Z,1007.55
2017-02-12T01:48:54.393Z,1007.74
2017-02-12T01:49:16.313Z,1007.67
2017-02-12T01:49:42.799Z,1007.74
2017-02-12T01:50:04.509Z,1007.55
2017-02-12T01:50:26.218Z,1007.66
2017-02-12T01:50:52.702Z,1007.54
2017-02-12T01:51:14.506Z,1007.60
2017-02-12T01:52:07.566Z,1007.77
2017-02-12T01:53:10.669Z,1007.63
2017-02-12T01:53:32.497Z,1007.77
2017-02-12T01:54:39.779Z,1007.69
2017-02-12T01:55:01.584Z,1007.68
2017-02-12T01:55:23.341Z,1007.74
2017-02-12T01:55:45.050Z,1007.75
2017-02-12T01:56:06.758Z,1007.67
2017-02-12T01:56:28.560Z,1007.70
2017-02-12T01:57:31.081Z,1007.49
2017-02-12T01:57:52.907Z,1007.54
2017-02-12T01:58:45.898Z,1007.41
2017-02-12T01:59:12.413Z,1007.45
2017-02-12T01:59:34.227Z,1007.48
2017-02-12T02:00:33.092Z,1007.54
2017-02-12T02:00:54.793Z,1007.40
2017-02-12T02:01:16.509Z,1007.51
2017-02-12T02:01:42.986Z,1007.53
2017-02-12T02:02:04.799Z,1007.38
2017-02-12T02:02:57.727Z,1007.46
2017-02-12T02:03:19.507Z,1007.54
2017-02-12T02:03:41.239Z,1007.60
2017-02-12T02:04:02.944Z,1007.55
2017-02-12T02:04:29.421Z,1007.53
2017-02-12T02:04:51.243Z,1007.58
2017-02-12T02:05:17.737Z,1007.72
2017-02-12T02:05:39.440Z,1007.72
2017-02-12T02:06:05.950Z,1007.65
2017-02-12T02:06:27.751Z,1007.59
2017-02-12T02:06:49.469Z,1007.52
2017-02-12T02:07:11.177Z,1007.49
2017-02-12T02:07:32.976Z,1007.59
2017-02-12T02:07:54.803Z,1007.55
2017-02-12T02:08:16.610Z,1007.56
2017-02-12T02:08:38.409Z,1007.58
2017-02-12T02:09:00.121Z,1007.60
2017-02-12T02:09:58.547Z,1007.72
2017-02-12T02:10:20.294Z,1007.70
2017-02-12T02:11:13.360Z,1007.58
2017-02-12T02:11:39.845Z,1007.61
2017-02-12T02:12:01.553Z,1007.57
2017-02-12T02:12:23.388Z,1007.60
2017-02-12T02:12:45.101Z,1007.58
2017-02-12T02:13:06.816Z,1007.60
2017-02-12T02:13:28.519Z,1007.65
2017-02-12T02:13:55.009Z,1007.65
2017-02-12T02:14:16.793Z,1007.77
2017-02-12T02:14:38.606Z,1007.76
2017-02-12T02:15:00.307Z,1007.84
2017-02-12T02:15:22.144Z,1007.79
2017-02-12T02:15:48.631Z,1007.79
2017-02-12T02:16:10.352Z,1007.78
2017-02-12T02:16:32.143Z,1007.85
2017-02-12T02:16:58.630Z,1007.93
2017-02-12T02:17:20.337Z,1007.91
2017-02-12T02:17:46.820Z,1007.93
2017-02-12T02:18:08.610Z,1007.87
2017-02-12T02:19:01.677Z,1007.90
2017-02-12T02:19:28.178Z,1007.88
2017-02-12T02:19:49.905Z,1007.81
2017-02-12T02:20:16.400Z,1007.82
2017-02-12T02:20:38.227Z,1007.70
2017-02-12T02:20:59.939Z,1007.77
2017-02-12T02:21:21.659Z,1007.75
2017-02-12T02:21:43.450Z,1007.76
2017-02-12T02:22:09.951Z,1007.66
2017-02-12T02:22:31.648Z,1007.64
2017-02-12T02:22:53.546Z,1007.69
2017-02-12T02:23:15.226Z,1007.65
2017-02-12T02:24:08.217Z,1007.62
2017-02-12T02:24:34.715Z,1007.70
2017-02-12T02:24:56.538Z,1007.71
2017-02-12T02:25:49.648Z,1007.62
2017-02-12T02:26:47.951Z,1007.56
2017-02-12T02:27:09.764Z,1007.78
2017-02-12T02:28:17.060Z,1007.46
2017-02-12T02:28:38.865Z,1007.50
2017-02-12T02:29:00.589Z,1007.60
2017-02-12T02:29:22.596Z,1007.57
2017-02-12T02:29:44.291Z,1007.56
2017-02-12T02:30:06.095Z,1007.70
2017-02-12T02:30:32.576Z,1007.56
2017-02-12T02:30:54.305Z,1007.60
2017-02-12T02:31:47.360Z,1007.44
2017-02-12T02:32:09.081Z,1007.45
2017-02-12T02:32:35.610Z,1007.43
2017-02-12T02:32:57.374Z,1007.54
2017-02-12T02:33:19.086Z,1007.47
2017-02-12T02:33:45.782Z,1007.45
2017-02-12T02:34:07.428Z,1007.57
2017-02-12T02:34:29.222Z,1007.49
2017-02-12T02:35:22.470Z,1007.34
2017-02-12T02:36:29.760Z,1007.39
2017-02-12T02:36:51.664Z,1007.44
2017-02-12T02:38:25.535Z,1007.36
2017-02-12T02:38:52.033Z,1007.58
2017-02-12T02:39:13.926Z,1007.53
2017-02-12T02:39:35.740Z,1007.57
2017-02-12T02:39:57.450Z,1007.49
2017-02-12T02:40:19.163Z,1007.60
2017-02-12T02:40:41.053Z,1007.66
2017-02-12T02:41:07.668Z,1007.76
2017-02-12T02:41:29.428Z,1007.74
2017-02-12T02:41:55.917Z,1007.63
2017-02-12T02:42:17.732Z,1007.73
2017-02-12T02:42:44.209Z,1007.62
2017-02-12T02:43:06.011Z,1007.72
2017-02-12T02:43:27.717Z,1007.60
2017-02-12T02:43:49.425Z,1007.66
2017-02-12T02:44:11.130Z,1007.72
2017-02-12T02:44:32.845Z,1007.84
2017-02-12T02:44:54.561Z,1007.59
2017-02-12T02:45:16.257Z,1007.67
2017-02-12T02:45:37.968Z,1007.77
2017-02-12T02:45:59.682Z,1007.78
2017-02-12T02:46:21.397Z,1007.61
2017-02-12T02:46:43.147Z,1007.84
2017-02-12T02:47:04.847Z,1007.78
2017-02-12T02:47:31.323Z,1007.92
2017-02-12T02:47:53.064Z,1007.76
2017-02-12T02:48:14.776Z,1007.80
2017-02-12T02:48:36.496Z,1007.73
2017-02-12T02:48:58.203Z,1007.86
2017-02-12T02:49:19.917Z,1007.83
2017-02-12T02:49:41.627Z,1007.90
2017-02-12T02:50:03.334Z,1007.76
2017-02-12T02:50:25.050Z,1007.80
2017-02-12T02:50:46.756Z,1007.79
2017-02-12T02:51:08.473Z,1007.78
2017-02-12T02:51:34.983Z,1007.88
2017-02-12T02:51:56.714Z,1007.84
2017-02-12T02:52:18.419Z,1007.96
2017-02-12T02:53:21.487Z,1007.81
2017-02-12T02:53:43.179Z,1007.99
2017-02-12T02:54:04.897Z,1007.90
2017-02-12T02:54:26.611Z,1007.92
2017-02-12T02:54:48.307Z,1007.87
2017-02-12T02:55:14.803Z,1007.86
2017-02-12T02:55:36.521Z,1007.87
2017-02-12T02:55:58.220Z,1007.99
2017-02-12T02:56:19.937Z,1007.80
2017-02-12T02:56:41.671Z,1007.84
2017-02-12T02:57:11.077Z,1007.95
2017-02-12T02:57:32.859Z,1007.88
2017-02-12T02:57:59.432Z,1007.84
2017-02-12T02:58:21.133Z,1007.83
2017-02-12T02:58:42.833Z,1007.88
2017-02-12T02:59:09.326Z,1007.81
2017-02-12T02:59:31.044Z,1007.78
2017-02-12T02:59:57.524Z,1007.78
2017-02-12T03:00:19.226Z,1007.96
2017-02-12T03:00:40.931Z,1007.82
2017-02-12T03:01:02.644Z,1007.83
2017-02-12T03:01:24.350Z,1007.78
2017-02-12T03:01:46.327Z,1007.81
2017-02-12T03:02:12.912Z,1007.73
2017-02-12T03:02:34.605Z,1007.90
2017-02-12T03:03:01.088Z,1007.77
2017-02-12T03:03:22.790Z,1007.80
2017-02-12T03:03:47.325Z,1007.88
2017-02-12T03:04:09.028Z,1007.78
2017-02-12T03:04:35.527Z,1007.71
2017-02-12T03:05:02.003Z,1007.83
2017-02-12T03:05:23.703Z,1007.79
2017-02-12T03:05:50.183Z,1007.74
2017-02-12T03:06:11.894Z,1007.82
2017-02-12T03:06:33.599Z,1007.88
2017-02-12T03:06:55.322Z,1007.89
2017-02-12T03:07:17.053Z,1007.77
2017-02-12T03:07:38.756Z,1007.85
2017-02-12T03:08:00.471Z,1007.89
2017-02-12T03:08:22.170Z,1007.93
2017-02-12T03:08:43.873Z,1007.85
2017-02-12T03:09:10.356Z,1007.79
2017-02-12T03:09:32.068Z,1007.84
2017-02-12T03:09:53.800Z,1007.82
2017-02-12T03:10:46.750Z,1007.82
2017-02-12T03:11:39.749Z,1007.88
2017-02-12T03:12:01.473Z,1008.06
2017-02-12T03:12:27.954Z,1007.92
2017-02-12T03:12:49.703Z,1007.93
2017-02-12T03:13:16.180Z,1007.89
2017-02-12T03:13:37.888Z,1007.83
2017-02-12T03:14:04.385Z,1007.83
2017-02-12T03:14:26.112Z,1007.91
2017-02-12T03:14:47.844Z,1008.00
2017-02-12T03:15:14.312Z,1007.90
2017-02-12T03:15:36.020Z,1007.83
2017-02-12T03:16:02.497Z,1008.03
2017-02-12T03:16:24.205Z,1007.95
2017-02-12T03:17:26.727Z,1007.89
2017-02-12T03:17:53.211Z,1007.96
2017-02-12T03:18:14.922Z,1007.85
2017-02-12T03:18:41.410Z,1007.85
2017-02-12T03:19:06.053Z,1007.93
2017-02-12T03:19:27.654Z,1007.82
2017-02-12T03:19:49.362Z,1007.91
2017-02-12T03:20:11.078Z,1007.92
2017-02-12T03:20:37.560Z,1008.05
2017-02-12T03:20:59.281Z,1007.85
2017-02-12T03:21:21.000Z,1007.90
2017-02-12T03:22:13.965Z,1007.88
2017-02-12T03:22:40.440Z,1007.91
2017-02-12T03:23:02.168Z,1008.07
2017-02-12T03:23:28.657Z,1008.01
2017-02-12T03:23:50.482Z,1008.18
2017-02-12T03:24:12.206Z,1007.93
2017-02-12T03:24:38.689Z,1007.96
2017-02-12T03:25:00.398Z,1007.89
2017-02-12T03:25:26.897Z,1007.87
2017-02-12T03:25:48.612Z,1008.00
2017-02-12T03:26:15.101Z,1007.98
2017-02-12T03:26:36.795Z,1007.92
2017-02-12T03:27:03.282Z,1007.90
2017-02-12T03:27:24.983Z,1007.99
2017-02-12T03:27:51.461Z,1008.03
2017-02-12T03:28:13.176Z,1007.93
2017-02-12T03:28:34.875Z,1007.91
2017-02-12T03:28:56.625Z,1007.85
2017-02-12T03:29:23.137Z,1007.89
2017-02-12T03:29:44.829Z,1007.93
2017-02-12T03:30:11.310Z,1007.99
2017-02-12T03:30:33.018Z,1007.73
2017-02-12T03:30:54.727Z,1007.91
2017-02-12T03:31:47.696Z,1007.85
2017-02-12T03:32:54.980Z,1007.73
2017-02-12T03:33:16.817Z,1007.83
2017-02-12T03:34:09.838Z,1007.93
2017-02-12T03:34:36.328Z,1007.92
2017-02-12T03:34:58.043Z,1007.85
2017-02-12T03:35:19.748Z,1007.89
2017-02-12T03:35:46.229Z,1007.98
2017-02-12T03:36:07.936Z,1008.00
2017-02-12T03:37:00.916Z,1007.93
2017-02-12T03:37:27.393Z,1007.84
2017-02-12T03:37:49.092Z,1007.87
2017-02-12T03:38:15.592Z,1008.10
2017-02-12T03:38:37.298Z,1008.09
2017-02-12T03:39:03.806Z,1007.95
2017-02-12T03:39:25.533Z,1007.87
2017-02-12T03:39:52.005Z,1007.95
2017-02-12T03:40:13.748Z,1008.06
2017-02-12T03:40:35.455Z,1007.95
2017-02-12T03:41:01.989Z,1008.02
2017-02-12T03:41:23.691Z,1008.03
2017-02-12T03:42:26.836Z,1007.97
2017-02-12T03:42:48.552Z,1008.00
2017-02-12T03:43:10.267Z,1007.97
2017-02-12T03:43:31.978Z,1007.97
2017-02-12T03:43:53.697Z,1008.01
2017-02-12T03:44:15.425Z,1007.97
2017-02-12T03:44:37.139Z,1008.03
2017-02-12T03:44:58.840Z,1008.00
2017-02-12T03:45:57.351Z,1008.11
2017-02-12T03:46:19.054Z,1008.13
2017-02-12T03:46:40.868Z,1008.14
2017-02-12T03:47:43.966Z,1008.12
2017-02-12T03:48:05.661Z,1008.10
2017-02-12T03:49:03.957Z,1008.12
2017-02-12T03:49:25.737Z,1008.04
2017-02-12T03:49:47.528Z,1008.20
2017-02-12T03:50:14.013Z,1008.17
2017-02-12T03:50:35.771Z,1008.27
2017-02-12T03:51:02.244Z,1008.22
2017-02-12T03:51:23.943Z,1008.17
2017-02-12T03:51:45.640Z,1008.05
2017-02-12T03:52:53.068Z,1008.01
2017-02-12T03:53:14.766Z,1008.17
2017-02-12T03:54:07.720Z,1008.04
2017-02-12T03:54:34.212Z,1008.12
2017-02-12T03:54:56.020Z,1008.10
2017-02-12T03:55:48.977Z,1008.16
2017-02-12T03:56:15.557Z,1008.13
2017-02-12T03:56:37.316Z,1008.25
2017-02-12T03:57:03.802Z,1008.16
2017-02-12T03:57:25.608Z,1008.23
2017-02-12T03:57:47.329Z,1008.14
2017-02-12T03:58:13.816Z,1008.36
2017-02-12T03:58:35.622Z,1008.16
2017-02-12T03:59:38.133Z,1008.33
2017-02-12T03:59:59.841Z,1008.18
2017-02-12T04:00:21.681Z,1008.16
2017-02-12T04:01:14.663Z,1008.21
2017-02-12T04:01:41.252Z,1008.31
2017-02-12T04:02:02.942Z,1008.16
2017-02-12T04:02:24.649Z,1008.19
2017-02-12T04:02:46.363Z,1008.13
2017-02-12T04:03:08.160Z,1008.31
2017-02-12T04:04:01.131Z,1008.20
2017-02-12T04:04:27.732Z,1008.15
2017-02-12T04:04:49.438Z,1008.30
2017-02-12T04:05:15.928Z,1008.46
2017-02-12T04:05:37.732Z,1008.42
2017-02-12T04:05:59.472Z,1008.38
2017-02-12T04:07:02.533Z,1008.37
2017-02-12T04:07:24.357Z,1008.37
2017-02-12T04:07:46.058Z,1008.36
2017-02-12T04:08:39.114Z,1008.38
2017-02-12T04:09:00.811Z,1008.42
2017-02-12T04:09:27.286Z,1008.45
2017-02-12T04:09:48.992Z,1008.63
2017-02-12T04:10:42.043Z,1008.41
2017-02-12T04:11:03.760Z,1008.54
2017-02-12T04:11:25.595Z,1008.59
2017-02-12T04:11:47.338Z,1008.48
2017-02-12T04:12:50.597Z,1008.52
2017-02-12T04:13:12.314Z,1008.45
2017-02-12T04:13:34.048Z,1008.63
2017-02-12T04:14:27.132Z,1008.49
2017-02-12T04:15:20.222Z,1008.67
2017-02-12T04:16:13.083Z,1008.58
2017-02-12T04:17:16.574Z,1008.70
2017-02-12T04:17:38.275Z,1008.60
2017-02-12T04:17:59.991Z,1008.69
2017-02-12T04:18:21.847Z,1008.66
2017-02-12T04:18:43.731Z,1008.62
2017-02-12T04:19:05.415Z,1008.61
2017-02-12T04:19:58.385Z,1008.69
2017-02-12T04:20:20.133Z,1008.55
2017-02-12T04:21:13.146Z,1008.63
2017-02-12T04:21:39.640Z,1008.49
2017-02-12T04:22:01.387Z,1008.46
2017-02-12T04:22:27.860Z,1008.48
2017-02-12T04:22:49.669Z,1008.53
2017-02-12T04:23:16.149Z,1008.52
2017-02-12T04:23:37.893Z,1008.72
2017-02-12T04:24:04.380Z,1008.70
2017-02-12T04:24:26.174Z,1008.70
2017-02-12T04:24:47.934Z,1008.72
2017-02-12T04:25:51.012Z,1008.78
2017-02-12T04:26:12.751Z,1008.66
2017-02-12T04:26:34.455Z,1008.68
2017-02-12T04:27:00.959Z,1008.68
2017-02-12T04:27:22.772Z,1008.83
2017-02-12T04:28:15.843Z,1008.72
2017-02-12T04:28:37.562Z,1008.76
2017-02-12T04:29:40.666Z,1008.77
2017-02-12T04:30:02.494Z,1008.76
2017-02-12T04:30:55.815Z,1008.83
2017-02-12T04:31:58.394Z,1008.87
2017-02-12T04:32:20.122Z,1008.79
2017-02-12T04:33:23.311Z,1008.99
2017-02-12T04:33:45.099Z,1008.81
2017-02-12T04:34:06.808Z,1008.75
2017-02-12T04:34:59.882Z,1008.77
2017-02-12T04:35:21.592Z,1008.75
2017-02-12T04:35:48.069Z,1008.77
2017-02-12T04:36:09.784Z,1008.89
2017-02-12T04:36:36.254Z,1008.95
2017-02-12T04:36:58.059Z,1008.95
2017-02-12T04:37:24.554Z,1008.82
2017-02-12T04:37:46.270Z,1008.80
2017-02-12T04:38:12.763Z,1008.88
2017-02-12T04:38:34.580Z,1008.85
2017-02-12T04:39:01.070Z,1008.95
2017-02-12T04:39:22.779Z,1008.82
2017-02-12T04:39:44.491Z,1008.97
2017-02-12T04:40:06.273Z,1008.90
2017-02-12T04:40:32.733Z,1008.94
2017-02-12T04:40:54.436Z,1008.76
2017-02-12T04:41:16.152Z,1008.77
2017-02-12T04:41:42.640Z,1008.86
2017-02-12T04:42:04.344Z,1008.85
2017-02-12T04:42:30.821Z,1008.86
2017-02-12T04:42:52.611Z,1008.89
2017-02-12T04:43:45.681Z,1009.12
2017-02-12T04:44:38.650Z,1009.06
2017-02-12T04:45:05.146Z,1008.92
2017-02-12T04:45:26.984Z,1008.89
2017-02-12T04:45:48.651Z,1008.96
2017-02-12T04:46:15.136Z,1008.94
2017-02-12T04:46:41.621Z,1008.94
2017-02-12T04:47:03.427Z,1008.86
2017-02-12T04:47:25.145Z,1008.80
2017-02-12T04:47:51.653Z,1008.85
2017-02-12T04:48:13.468Z,1008.79
2017-02-12T04:48:39.971Z,1008.82
2017-02-12T04:49:01.696Z,1008.75
2017-02-12T04:49:28.206Z,1008.76
2017-02-12T04:49:50.010Z,1008.74
2017-02-12T04:50:16.496Z,1008.70
2017-02-12T04:50:38.219Z,1008.81
2017-02-12T04:51:00.036Z,1008.92
2017-02-12T04:51:53.054Z,1009.01
2017-02-12T04:52:20.008Z,1008.88
2017-02-12T04:52:41.822Z,1008.81
2017-02-12T04:53:08.306Z,1008.75
2017-02-12T04:53:30.011Z,1008.82
2017-02-12T04:53:56.488Z,1008.81
2017-02-12T04:54:18.286Z,1008.89
2017-02-12T04:54:44.798Z,1009.00
2017-02-12T04:55:06.501Z,1008.82
2017-02-12T04:55:33.086Z,1008.78
2017-02-12T04:55:54.807Z,1008.93
2017-02-12T04:56:21.281Z,1008.91
2017-02-12T04:56:47.860Z,1008.97
2017-02-12T04:57:09.684Z,1008.73
2017-02-12T04:57:31.399Z,1008.87
2017-02-12T04:58:24.452Z,1008.79
2017-02-12T04:58:46.152Z,1009.04
2017-02-12T04:59:39.222Z,1008.82
2017-02-12T05:00:05.713Z,1008.87
2017-02-12T05:00:27.418Z,1008.83
2017-02-12T05:01:20.479Z,1008.82
2017-02-12T05:01:46.961Z,1008.95
2017-02-12T05:02:08.676Z,1008.78
2017-02-12T05:02:35.176Z,1008.89
2017-02-12T05:02:57.018Z,1008.82
2017-02-12T05:03:23.505Z,1008.76
2017-02-12T05:03:45.236Z,1008.90
2017-02-12T05:04:11.717Z,1008.82
2017-02-12T05:05:19.076Z,1008.77
2017-02-12T05:05:40.886Z,1008.82
2017-02-12T05:06:02.631Z,1008.85
2017-02-12T05:06:55.707Z,1008.81
2017-02-12T05:07:48.663Z,1008.79
2017-02-12T05:08:41.696Z,1008.78
2017-02-12T05:09:03.415Z,1008.85
2017-02-12T05:09:29.960Z,1008.82
2017-02-12T05:09:51.736Z,1008.77
2017-02-12T05:10:13.466Z,1008.73
2017-02-12T05:10:39.956Z,1008.74
2017-02-12T05:11:01.680Z,1008.72
2017-02-12T05:11:23.492Z,1008.88
2017-02-12T05:11:49.969Z,1008.81
2017-02-12T05:12:14.671Z,1008.84
2017-02-12T05:13:07.716Z,1008.77
2017-02-12T05:13:34.202Z,1008.80
2017-02-12T05:13:55.918Z,1008.93
2017-02-12T05:14:17.742Z,1008.91
2017-02-12T05:14:44.229Z,1008.84
2017-02-12T05:15:05.939Z,1008.86
2017-02-12T05:15:58.984Z,1008.88
2017-02-12T05:16:52.109Z,1008.80
2017-02-12T05:17:55.185Z,1008.88
2017-02-12T05:18:16.987Z,1008.85
2017-02-12T05:18:38.699Z,1008.92
2017-02-12T05:19:05.179Z,1008.79
2017-02-12T05:19:27.012Z,1008.96
2017-02-12T05:19:53.499Z,1009.03
2017-02-12T05:20:15.207Z,1008.98
2017-02-12T05:20:36.932Z,1008.91
2017-02-12T05:21:03.441Z,1008.98
2017-02-12T05:21:25.422Z,1008.89
2017-02-12T05:22:28.436Z,1009.08
2017-02-12T05:22:50.248Z,1009.00
2017-02-12T05:23:11.966Z,1008.94
2017-02-12T05:23:38.461Z,1008.90
2017-02-12T05:24:00.263Z,1008.99
2017-02-12T05:24:53.371Z,1009.01
2017-02-12T05:25:15.067Z,1009.03
2017-02-12T05:25:36.794Z,1009.04
2017-02-12T05:25:58.516Z,1009.08
2017-02-12T05:26:20.337Z,1009.10
2017-02-12T05:26:46.833Z,1008.92
2017-02-12T05:27:08.544Z,1009.18
2017-02-12T05:27:30.256Z,1009.00
2017-02-12T05:28:23.286Z,1009.02
2017-02-12T05:28:45.002Z,1009.08
2017-02-12T05:29:38.072Z,1008.87
2017-02-12T05:29:59.802Z,1008.97
2017-02-12T05:30:52.859Z,1008.96
2017-02-12T05:31:14.583Z,1008.92
2017-02-12T05:32:07.621Z,1008.96
2017-02-12T05:32:34.123Z,1009.07
2017-02-12T05:32:55.829Z,1008.95
2017-02-12T05:33:22.305Z,1008.93
2017-02-12T05:33:44.113Z,1008.96
2017-02-12T05:34:10.593Z,1008.92
2017-02-12T05:34:32.323Z,1008.97
2017-02-12T05:34:58.928Z,1009.08
2017-02-12T05:35:20.644Z,1009.02
2017-02-12T05:35:42.352Z,1009.00
2017-02-12T05:37:16.128Z,1009.09
2017-02-12T05:37:37.930Z,1009.06
2017-02-12T05:38:30.989Z,1009.09
2017-02-12T05:39:24.084Z,1009.02
2017-02-12T05:40:27.166Z,1009.01
2017-02-12T05:40:49.091Z,1009.18
2017-02-12T05:41:42.051Z,1009.00
2017-02-12T05:42:35.117Z,1008.93
2017-02-12T05:43:28.222Z,1009.04
2017-02-12T05:44:21.300Z,1009.01
2017-02-12T05:45:14.474Z,1009.02
2017-02-12T05:46:07.538Z,1008.98
2017-02-12T05:46:29.250Z,1008.91
2017-02-12T05:46:55.735Z,1008.96
2017-02-12T05:47:17.527Z,1008.91
2017-02-12T05:48:10.490Z,1008.87
2017-02-12T05:48:36.964Z,1008.86
2017-02-12T05:48:58.765Z,1008.84
2017-02-12T05:49:25.265Z,1008.93
2017-02-12T05:49:46.982Z,1008.91
2017-02-12T05:50:13.476Z,1008.89
2017-02-12T05:50:35.271Z,1008.89
2017-02-12T05:51:01.765Z,1008.93
2017-02-12T05:51:23.486Z,1008.95
2017-02-12T05:51:45.278Z,1008.82
2017-02-12T05:52:11.764Z,1008.97
2017-02-12T05:52:33.473Z,1008.81
2017-02-12T05:53:26.526Z,1008.89
2017-02-12T05:53:48.269Z,1008.88
2017-02-12T05:54:14.747Z,1008.82
2017-02-12T05:54:36.541Z,1008.84
2017-02-12T05:55:43.824Z,1008.77
2017-02-12T05:56:05.633Z,1008.90